createdAt,value
2018-11-22T00:00:10.472Z,2
2018-11-22T00:05:08.140Z,2
2018-11-22T00:10:05.453Z,2.1
2018-11-22T00:20:10.348Z,2.1
2018-11-22T00:25:03.063Z,2
2018-11-22T00:30:04.922Z,2.1
2018-11-22T00:35:05.086Z,2.1
2018-11-22T00:40:10.482Z,2.1
2018-11-22T00:45:05.695Z,2.1
2018-11-22T00:50:02.984Z,2
2018-11-22T00:55:08.341Z,2.1
2018-11-22T01:00:12.786Z,2.1
2018-11-22T01:05:02.924Z,2.1
2018-11-22T01:10:05.219Z,2.1
2018-11-22T01:15:05.534Z,2.1
2018-11-22T01:20:02.854Z,2
2018-11-22T01:25:03.189Z,2.1
2018-11-22T01:30:30.293Z,2.1
2018-11-22T01:35:15.218Z,2.1
2018-11-22T01:40:05.566Z,2.1
2018-11-22T01:45:21.033Z,2.1
2018-11-22T01:50:10.983Z,2
2018-11-22T01:55:05.164Z,2.1
2018-11-22T02:00:04.999Z,2
2018-11-22T02:05:15.348Z,2
2018-11-22T02:10:10.643Z,2.1
2018-11-22T02:15:33.661Z,2.1
2018-11-22T02:20:08.080Z,2.1
2018-11-22T02:25:13.351Z,2
2018-11-22T02:35:02.887Z,2.1
2018-11-22T02:40:12.830Z,2.1
2018-11-22T02:45:23.151Z,2.1
2018-11-22T02:50:02.419Z,2.1
2018-11-22T02:55:10.262Z,2.1
2018-11-22T03:00:02.552Z,2.1
2018-11-22T03:05:30.657Z,2.1
2018-11-22T03:10:35.384Z,2.1
2018-11-22T03:15:07.771Z,2.1
2018-11-22T03:20:03.116Z,2.1
2018-11-22T03:25:02.436Z,2.2
2018-11-22T03:30:10.295Z,2.1
2018-11-22T03:35:03.035Z,2.1
2018-11-22T03:40:23.039Z,2.1
2018-11-22T03:45:08.145Z,2.1
2018-11-22T03:50:22.720Z,2.1
2018-11-22T03:55:07.805Z,2.2
2018-11-22T04:00:13.213Z,2.2
2018-11-22T04:05:02.434Z,2.2
2018-11-22T04:10:05.774Z,2.2
2018-11-22T04:15:07.673Z,2.2
2018-11-22T04:20:05.601Z,2.2
2018-11-22T04:25:05.826Z,2.2
2018-11-22T04:30:05.174Z,2.2
2018-11-22T04:35:20.686Z,2.1
2018-11-22T04:40:05.063Z,2.1
2018-11-22T04:45:02.763Z,2.1
2018-11-22T04:50:10.664Z,2.1
2018-11-22T04:55:03.349Z,2.1
2018-11-22T05:00:02.585Z,2.2
2018-11-22T05:05:08.109Z,2.2
2018-11-22T05:10:02.854Z,2.2
2018-11-22T05:15:18.323Z,2.2
2018-11-22T05:20:05.229Z,2.2
2018-11-22T05:25:03.058Z,2.2
2018-11-22T05:30:10.951Z,2.2
2018-11-22T05:35:10.230Z,2.2
2018-11-22T05:40:08.164Z,2.2
2018-11-22T05:45:07.471Z,2.2
2018-11-22T05:50:25.525Z,2.2
2018-11-22T05:55:02.907Z,2.2
2018-11-22T06:05:04.967Z,2.2
2018-11-22T06:10:02.782Z,2.2
2018-11-22T06:15:05.640Z,2.2
2018-11-22T06:20:05.615Z,2.2
2018-11-22T06:25:08.307Z,2.2
2018-11-22T06:30:02.544Z,2.2
2018-11-22T06:35:05.461Z,2.2
2018-11-22T06:40:08.312Z,2.2
2018-11-22T06:45:02.537Z,2.2
2018-11-22T06:50:02.862Z,2.2
2018-11-22T06:55:03.066Z,2.3
2018-11-22T07:00:05.906Z,2.2
2018-11-22T07:05:10.295Z,2.2
2018-11-22T07:10:05.648Z,2.2
2018-11-22T07:15:02.366Z,2.2
2018-11-22T07:20:02.779Z,2.2
2018-11-22T07:25:07.443Z,2.2
2018-11-22T07:30:02.724Z,2.2
2018-11-22T07:35:05.564Z,2.2
2018-11-22T07:40:08.449Z,2.3
2018-11-22T07:45:10.241Z,2.2
2018-11-22T07:50:02.550Z,2.2
2018-11-22T07:55:05.356Z,2.2
2018-11-22T08:00:07.691Z,2.2
2018-11-22T08:05:02.957Z,2.2
2018-11-22T08:10:02.703Z,2.2
2018-11-22T08:15:05.854Z,2.2
2018-11-22T08:20:05.851Z,2.2
2018-11-22T08:25:02.554Z,2.2
2018-11-22T08:30:10.441Z,2.2
2018-11-22T08:35:08.130Z,2.2
2018-11-22T08:40:02.877Z,2.2
2018-11-22T08:45:05.695Z,2.3
2018-11-22T08:50:08.137Z,2.3
2018-11-22T08:55:08.311Z,2.3
2018-11-22T09:00:10.787Z,2.3
2018-11-22T09:05:07.456Z,2.3
2018-11-22T09:10:03.283Z,2.3
2018-11-22T09:15:02.514Z,2.2
2018-11-22T09:20:02.996Z,2.3
2018-11-22T09:25:07.961Z,2.3
2018-11-22T09:30:03.246Z,2.4
2018-11-22T09:35:17.735Z,2.4
2018-11-22T09:40:05.111Z,2.4
2018-11-22T09:45:18.323Z,2.3
2018-11-22T09:50:02.585Z,2.3
2018-11-22T09:55:02.874Z,2.3
2018-11-22T10:00:05.685Z,2.4
2018-11-22T10:05:02.531Z,2.4
2018-11-22T10:10:07.994Z,2.4
2018-11-22T10:15:02.394Z,2.4
2018-11-22T10:20:07.803Z,2.5
2018-11-22T10:25:10.895Z,2.5
2018-11-22T10:30:05.720Z,2.5
2018-11-22T10:35:02.835Z,2.5
2018-11-22T10:40:05.518Z,2.5
2018-11-22T10:45:08.377Z,2.5
2018-11-22T10:50:17.892Z,2.6
2018-11-22T10:55:03.022Z,2.6
2018-11-22T11:00:03.415Z,2.6
2018-11-22T11:05:02.724Z,2.6
2018-11-22T11:10:05.023Z,2.6
2018-11-22T11:15:07.995Z,2.6
2018-11-22T11:20:08.467Z,2.6
2018-11-22T11:25:05.185Z,2.7
2018-11-22T11:30:30.346Z,2.7
2018-11-22T11:35:07.674Z,2.8
2018-11-22T11:40:20.181Z,2.8
2018-11-22T11:45:02.670Z,2.8
2018-11-22T11:50:15.634Z,2.8
2018-11-22T11:55:03.237Z,2.8
2018-11-22T12:00:17.921Z,2.9
2018-11-22T12:05:02.782Z,2.9
2018-11-22T12:10:05.190Z,2.8
2018-11-22T12:15:17.992Z,2.9
2018-11-22T12:20:03.347Z,2.9
2018-11-22T12:25:25.430Z,2.9
2018-11-22T12:30:12.843Z,2.9
2018-11-22T12:35:03.013Z,2.9
2018-11-22T12:40:15.493Z,2.9
2018-11-22T12:45:05.628Z,3
2018-11-22T12:50:02.908Z,3
2018-11-22T12:55:08.266Z,2.9
2018-11-22T13:00:27.784Z,3
2018-11-22T13:05:03.156Z,3
2018-11-22T13:10:20.641Z,3
2018-11-22T13:15:37.796Z,2.9
2018-11-22T13:20:23.380Z,2.9
2018-11-22T13:25:22.672Z,2.9
2018-11-22T13:30:05.510Z,2.9
2018-11-22T13:35:05.479Z,2.9
2018-11-22T13:40:33.613Z,2.8
2018-11-22T13:45:05.488Z,2.8
2018-11-22T13:50:23.023Z,2.8
2018-11-22T13:55:13.241Z,2.8
2018-11-22T14:00:05.074Z,2.8
2018-11-22T14:05:07.851Z,2.8
2018-11-22T14:10:09.992Z,2.8
2018-11-22T14:15:02.596Z,2.8
2018-11-22T14:20:03.079Z,2.9
2018-11-22T14:25:03.245Z,2.9
2018-11-22T14:30:02.405Z,2.8
2018-11-22T14:35:02.604Z,2.8
2018-11-22T14:40:03.359Z,2.8
2018-11-22T14:45:30.272Z,2.8
2018-11-22T14:50:02.486Z,2.8
2018-11-22T14:55:02.749Z,2.7
2018-11-22T15:00:05.591Z,2.6
2018-11-22T15:05:07.428Z,2.6
2018-11-22T15:10:05.718Z,2.6
2018-11-22T15:15:02.419Z,2.6
2018-11-22T15:20:10.379Z,2.6
2018-11-22T15:25:30.983Z,2.5
2018-11-22T15:30:08.311Z,2.5
2018-11-22T15:35:02.580Z,2.5
2018-11-22T15:40:05.848Z,2.5
2018-11-22T15:45:15.218Z,2.5
2018-11-22T15:50:02.569Z,2.4
2018-11-22T15:55:05.380Z,2.4
2018-11-22T16:00:05.206Z,2.4
2018-11-22T16:05:15.618Z,2.4
2018-11-22T16:10:02.493Z,2.4
2018-11-22T16:15:13.294Z,2.4
2018-11-22T16:20:02.717Z,2.4
2018-11-22T16:25:05.695Z,2.4
2018-11-22T16:30:15.618Z,2.5
2018-11-22T16:35:33.311Z,2.5
2018-11-22T16:40:04.937Z,2.5
2018-11-22T16:45:07.689Z,2.4
2018-11-22T16:50:05.424Z,2.5
2018-11-22T16:55:28.525Z,2.4
2018-11-22T17:00:02.767Z,2.5
2018-11-22T17:05:03.058Z,2.4
2018-11-22T17:10:02.873Z,2.3
2018-11-22T17:15:18.316Z,2.4
2018-11-22T17:20:15.301Z,2.4
2018-11-22T17:25:08.063Z,2.3
2018-11-22T17:30:11.182Z,2.3
2018-11-22T17:35:02.635Z,2.3
2018-11-22T17:40:02.448Z,2.2
2018-11-22T17:45:17.934Z,2.2
2018-11-22T17:50:10.791Z,2.1
2018-11-22T17:55:05.039Z,2.1
2018-11-22T18:00:03.359Z,2.2
2018-11-22T18:05:05.173Z,2.2
2018-11-22T18:10:02.927Z,2.2
2018-11-22T18:15:03.276Z,2.2
2018-11-22T18:20:07.727Z,2.1
2018-11-22T18:25:05.453Z,2.2
2018-11-22T18:30:02.758Z,2.1
2018-11-22T18:40:22.970Z,2.1
2018-11-22T18:45:20.716Z,2.1
2018-11-22T18:50:20.700Z,2.1
2018-11-22T18:55:15.955Z,2.1
2018-11-22T19:00:03.277Z,2.1
2018-11-22T19:05:17.694Z,2.1
2018-11-22T19:10:20.235Z,2.1
2018-11-22T19:15:05.371Z,2
2018-11-22T19:20:10.354Z,2
2018-11-22T19:25:05.515Z,2
2018-11-22T19:30:03.764Z,1.9
2018-11-22T19:35:05.575Z,1.9
2018-11-22T19:40:02.380Z,1.9
2018-11-22T19:45:05.231Z,1.9
2018-11-22T19:50:10.122Z,1.9
2018-11-22T19:55:10.412Z,1.9
2018-11-22T20:00:02.683Z,1.9
2018-11-22T20:10:07.550Z,1.8
2018-11-22T20:15:12.748Z,1.8
2018-11-22T20:20:18.377Z,1.8
2018-11-22T20:25:12.528Z,1.8
2018-11-22T20:30:02.818Z,1.8
2018-11-22T20:35:18.252Z,1.7
2018-11-22T20:40:33.383Z,1.7
2018-11-22T20:45:07.677Z,1.7
2018-11-22T20:50:05.506Z,1.7
2018-11-22T20:55:05.808Z,1.7
2018-11-22T21:00:15.806Z,1.7
2018-11-22T21:05:02.416Z,1.7
2018-11-22T21:10:20.875Z,1.7
2018-11-22T21:15:20.163Z,1.7
2018-11-22T21:20:07.582Z,1.7
2018-11-22T21:25:10.341Z,1.8
2018-11-22T21:35:10.414Z,1.8
2018-11-22T21:40:15.808Z,1.8
2018-11-22T21:45:05.034Z,1.8
2018-11-22T21:50:08.391Z,1.8
2018-11-22T21:55:05.202Z,1.8
2018-11-22T22:00:10.104Z,1.8
2018-11-22T22:05:07.909Z,1.8
2018-11-22T22:10:05.165Z,1.8
2018-11-22T22:15:23.173Z,1.8
2018-11-22T22:20:10.591Z,1.8
2018-11-22T22:25:03.268Z,1.8
2018-11-22T22:30:10.125Z,1.8
2018-11-22T22:35:02.837Z,1.8
2018-11-22T22:40:10.179Z,1.8
2018-11-22T22:45:25.812Z,1.8
2018-11-22T22:50:05.797Z,1.8
2018-11-22T22:55:02.377Z,1.8
2018-11-22T23:00:05.204Z,1.8
2018-11-22T23:05:05.524Z,1.8
2018-11-22T23:10:05.808Z,1.8
2018-11-22T23:15:02.634Z,1.8
2018-11-22T23:20:02.948Z,1.8
2018-11-22T23:25:03.224Z,1.8
2018-11-22T23:30:07.588Z,1.8
2018-11-22T23:35:05.273Z,1.9
2018-11-22T23:40:05.611Z,1.8
2018-11-22T23:45:02.445Z,1.8
2018-11-22T23:50:02.750Z,1.8
2018-11-22T23:55:10.657Z,1.8
